Time;durP1;ratioP1;P1;durP2;ratioP2;P2;SDS_P1;SDS_P2;PMS_P1;PMS_P2;Temp;Humidity;BMP_temperature;BMP_pressure;BME280_temperature;BME280_humidity;BME280_pressure;Samples;Min_cycle;Max_cycle;Signal;HPM_P1;HPM_P2
2021/09/17 00:01:03;;;;;;;24.70;16.38;;;15.80;83.80;;;;;;4996860;28;20078;-59
2021/09/17 00:03:30;;;;;;;20.38;14.48;;;15.80;83.90;;;;;;4997159;28;20193;-59
2021/09/17 00:05:57;;;;;;;20.73;15.82;;;15.80;84.00;;;;;;5001085;28;20050;-59
2021/09/17 00:08:24;;;;;;;25.65;14.20;;;15.80;84.10;;;;;;5006939;28;20571;-59
2021/09/17 00:10:51;;;;;;;18.50;14.18;;;15.80;84.10;;;;;;5008035;28;20065;-61
2021/09/17 00:13:18;;;;;;;21.00;15.18;;;15.70;84.00;;;;;;5005381;28;20355;-59
2021/09/17 00:15:44;;;;;;;20.77;13.82;;;15.70;84.10;;;;;;5000025;28;20129;-64
2021/09/17 00:18:11;;;;;;;17.00;13.02;;;15.70;84.80;;;;;;4999490;28;20065;-60
2021/09/17 00:20:38;;;;;;;19.27;13.77;;;15.70;84.30;;;;;;4998885;28;20038;-58
2021/09/17 00:23:05;;;;;;;22.38;13.20;;;15.70;84.20;;;;;;4997736;28;20074;-60
2021/09/17 00:25:32;;;;;;;16.30;12.20;;;15.70;84.20;;;;;;4980800;28;20050;-59
2021/09/17 00:27:59;;;;;;;20.90;11.18;;;15.60;84.20;;;;;;4998561;28;20042;-58
2021/09/17 00:30:28;;;;;;;15.63;11.40;;;15.60;84.40;;;;;;4998917;28;20077;-60
2021/09/17 00:32:56;;;;;;;18.70;11.55;;;15.60;84.50;;;;;;4993601;28;20046;-59
2021/09/17 00:35:22;;;;;;;16.95;10.98;;;15.50;84.40;;;;;;4963024;28;20042;-60
2021/09/17 00:37:49;;;;;;;13.30;10.50;;;15.50;84.50;;;;;;4991014;28;20047;-59
2021/09/17 00:40:16;;;;;;;16.95;10.18;;;15.50;84.60;;;;;;4983864;28;20163;-59
2021/09/17 00:42:43;;;;;;;18.65;10.60;;;15.40;84.70;;;;;;4973654;28;20086;-59
2021/09/17 00:45:11;;;;;;;15.52;10.25;;;15.40;84.80;;;;;;4992606;28;20050;-59
2021/09/17 00:47:38;;;;;;;15.30;10.73;;;15.30;84.80;;;;;;4991845;28;20519;-59
2021/09/17 00:50:06;;;;;;;17.40;10.43;;;15.30;84.90;;;;;;4990263;28;20050;-59
2021/09/17 00:52:33;;;;;;;14.40;10.95;;;15.30;84.90;;;;;;4990453;28;20081;-59
2021/09/17 00:55:00;;;;;;;12.25;9.65;;;15.30;85.00;;;;;;4994224;28;20046;-59
2021/09/17 00:57:27;;;;;;;16.92;10.98;;;15.30;85.00;;;;;;4632174;28;9999851;-60
2021/09/17 00:59:53;;;;;;;18.27;11.93;;;15.20;85.00;;;;;;4960245;28;20137;-59
2021/09/17 01:02:20;;;;;;;17.10;10.23;;;15.20;85.10;;;;;;4980254;28;20050;-58
2021/09/17 01:04:47;;;;;;;16.25;10.93;;;15.10;85.20;;;;;;4999794;28;20496;-59
2021/09/17 01:07:14;;;;;;;19.05;10.70;;;15.10;85.40;;;;;;4998187;28;20054;-59
2021/09/17 01:09:41;;;;;;;15.02;10.27;;;15.10;85.40;;;;;;4996365;28;20046;-59
2021/09/17 01:12:08;;;;;;;24.95;12.63;;;15.00;85.50;;;;;;4967633;28;20077;-59
2021/09/17 01:14:35;;;;;;;18.92;10.65;;;15.10;85.50;;;;;;5000125;28;20050;-59
2021/09/17 01:17:03;;;;;;;15.65;10.43;;;15.10;85.60;;;;;;4997893;28;20066;-57
2021/09/17 01:19:30;;;;;;;16.92;11.02;;;15.10;85.40;;;;;;4994124;28;20062;-58
2021/09/17 01:22:01;;;;;;;15.40;9.68;;;15.10;85.20;;;;;;4995170;28;20050;-58
2021/09/17 01:24:27;;;;;;;18.92;10.40;;;15.10;86.00;;;;;;4995998;28;20081;-59
2021/09/17 01:26:54;;;;;;;16.58;10.15;;;15.10;85.10;;;;;;4996471;28;20050;-59
2021/09/17 01:29:21;;;;;;;14.68;9.50;;;15.10;85.30;;;;;;4988681;28;20054;-59
2021/09/17 01:31:49;;;;;;;15.02;9.85;;;15.10;85.20;;;;;;5009378;28;20053;-58
2021/09/17 01:34:17;;;;;;;13.88;9.30;;;15.10;85.40;;;;;;5008787;28;20057;-59
2021/09/17 01:36:44;;;;;;;14.75;9.50;;;15.10;85.60;;;;;;5002117;28;20046;-58
2021/09/17 01:39:11;;;;;;;12.88;8.30;;;15.10;85.50;;;;;;4994031;28;20116;-59
2021/09/17 01:41:39;;;;;;;11.98;8.68;;;15.10;85.70;;;;;;4973188;28;20050;-59
2021/09/17 01:44:05;;;;;;;18.88;9.25;;;15.10;85.70;;;;;;4973578;28;20088;-59
2021/09/17 01:46:33;;;;;;;14.23;8.02;;;15.10;85.70;;;;;;4990321;28;20075;-58
2021/09/17 01:49:00;;;;;;;14.95;7.65;;;15.10;85.80;;;;;;4989254;28;20129;-58
2021/09/17 01:51:27;;;;;;;11.90;8.40;;;15.00;86.00;;;;;;4990086;28;20078;-59
2021/09/17 01:54:51;;;;;;;10.90;6.00;;;15.10;86.20;;;;;;5007210;28;20054;-57
2021/09/17 01:58:46;;;;;;;10.77;7.45;;;15.10;88.30;;;;;;5004195;28;20044;-59
2021/09/17 02:02:25;;;;;;;10.75;6.28;;;15.10;88.60;;;;;;4977582;28;20052;-59
2021/09/17 02:22:09;;;;;;;8.75;5.38;;;15.10;89.30;;;;;;4950521;29;20098;-59
2021/09/17 02:25:24;;;;;;;12.25;6.15;;;15.00;87.90;;;;;;4967297;28;20043;-59
2021/09/17 02:28:30;;;;;;;11.18;6.47;;;15.00;89.00;;;;;;4959551;29;20062;-59
2021/09/17 02:31:35;;;;;;;14.68;6.63;;;15.00;86.70;;;;;;4944419;29;20044;-60
2021/09/17 02:34:40;;;;;;;6.97;4.80;;;15.10;87.90;;;;;;4948858;29;20047;-59
2021/09/17 02:37:07;;;;;;;10.43;6.00;;;15.00;87.30;;;;;;4959998;28;20067;-61
2021/09/17 02:43:35;;;;;;;14.43;6.00;;;14.90;90.30;;;;;;4959653;29;20148;-59
2021/09/17 02:46:02;;;;;;;10.50;6.20;;;14.90;87.70;;;;;;4959626;29;20067;-60
2021/09/17 02:48:29;;;;;;;12.57;7.60;;;14.90;88.50;;;;;;4952147;29;20047;-58
2021/09/17 02:50:56;;;;;;;15.63;7.47;;;15.00;88.10;;;;;;4951898;29;20395;-59
2021/09/17 02:53:22;;;;;;;15.63;7.47;;;15.00;88.10;;;;;;4949774;29;20074;-59
2021/09/17 02:55:49;;;;;;;12.80;7.70;;;15.00;87.90;;;;;;4949374;28;20090;-59
2021/09/17 02:58:16;;;;;;;15.95;7.72;;;15.00;87.80;;;;;;4954022;29;20059;-59
2021/09/17 03:00:43;;;;;;;15.77;7.18;;;15.00;87.70;;;;;;4952689;29;20043;-58
2021/09/17 03:03:10;;;;;;;14.98;6.75;;;15.10;87.50;;;;;;4953970;28;20055;-59
2021/09/17 03:06:40;;;;;;;9.05;6.40;;;15.10;87.60;;;;;;4953326;28;20070;-59
2021/09/17 03:09:37;;;;;;;15.70;8.68;;;15.10;90.00;;;;;;4953591;29;20110;-59
2021/09/17 03:12:04;;;;;;;9.38;7.32;;;15.00;87.70;;;;;;4953936;29;20047;-59
2021/09/17 03:14:31;;;;;;;13.15;7.80;;;15.00;87.90;;;;;;4953518;29;20097;-59
2021/09/17 03:16:57;;;;;;;9.75;7.22;;;14.90;88.00;;;;;;4953327;29;20043;-59
2021/09/17 03:19:24;;;;;;;17.85;7.80;;;14.90;88.10;;;;;;4952440;28;20090;-59
2021/09/17 03:21:51;;;;;;;15.45;7.45;;;14.80;88.20;;;;;;4970753;28;20074;-59
2021/09/17 03:24:18;;;;;;;14.93;7.43;;;14.80;88.40;;;;;;4964849;28;20047;-62
2021/09/17 03:26:45;;;;;;;15.48;7.32;;;14.70;89.00;;;;;;4971700;28;20062;-59
2021/09/17 03:29:11;;;;;;;12.00;8.10;;;14.70;88.60;;;;;;4969881;28;20801;-59
2021/09/17 03:31:38;;;;;;;14.02;7.32;;;14.80;88.60;;;;;;4972818;28;20125;-60
2021/09/17 03:34:05;;;;;;;14.68;7.85;;;14.70;88.40;;;;;;4972248;28;20105;-59
2021/09/17 03:36:32;;;;;;;12.30;7.82;;;14.80;89.10;;;;;;4973023;28;20454;-59
2021/09/17 03:38:58;;;;;;;12.27;7.32;;;14.80;88.20;;;;;;4972402;28;20442;-59
2021/09/17 03:41:25;;;;;;;14.20;7.18;;;14.80;88.20;;;;;;4973675;28;20047;-59
2021/09/17 03:43:52;;;;;;;10.77;7.85;;;14.80;88.30;;;;;;4971186;28;20085;-60
2021/09/17 03:46:19;;;;;;;14.45;7.28;;;14.80;88.40;;;;;;4968711;28;20082;-59
2021/09/17 03:48:45;;;;;;;11.32;7.53;;;14.80;88.40;;;;;;4976717;28;20058;-59
2021/09/17 03:51:12;;;;;;;20.35;7.53;;;14.70;88.30;;;;;;4983270;28;20451;-59
2021/09/17 03:53:39;;;;;;;12.25;7.18;;;14.70;88.40;;;;;;4986861;28;20047;-60
2021/09/17 04:04:56;;;;;;;11.13;7.10;;;14.70;90.00;;;;;;4984044;28;20410;-59
2021/09/17 04:07:23;;;;;;;11.00;7.10;;;14.70;90.00;;;;;;4983965;28;20102;-59
2021/09/17 04:09:49;;;;;;;14.35;9.10;;;14.70;87.80;;;;;;4987474;28;20055;-60
2021/09/17 04:12:16;;;;;;;10.77;6.85;;;14.70;88.00;;;;;;4985063;28;20073;-59
2021/09/17 04:14:43;;;;;;;15.05;7.05;;;14.70;88.00;;;;;;4985734;28;20051;-59
2021/09/17 04:17:09;;;;;;;19.45;7.88;;;14.70;88.20;;;;;;4987126;28;20058;-60
2021/09/17 04:20:14;;;;;;;12.98;7.22;;;14.70;88.40;;;;;;4986782;28;20050;-59
2021/09/17 04:27:43;;;;;;;14.45;8.07;;;14.60;90.30;;;;;;4979459;28;20122;-64
2021/09/17 04:31:35;;;;;;;14.88;8.27;;;14.60;90.10;;;;;;5012430;28;20045;-58
2021/09/17 04:35:22;;;;;;;15.93;8.90;;;14.60;90.00;;;;;;5009549;28;20108;-58
2021/09/17 04:38:25;;;;;;;11.60;7.22;;;14.60;89.60;;;;;;4997047;28;20037;-59
2021/09/17 04:40:52;;;;;;;10.75;7.22;;;14.60;88.10;;;;;;4990974;28;20138;-59
2021/09/17 04:43:18;;;;;;;11.85;7.50;;;14.50;88.20;;;;;;4979627;28;20124;-59
2021/09/17 04:45:45;;;;;;;12.82;8.18;;;14.50;88.10;;;;;;4989882;28;20145;-59
2021/09/17 04:48:14;;;;;;;14.85;7.55;;;14.50;88.10;;;;;;4989653;28;20065;-58
2021/09/17 04:50:41;;;;;;;15.88;7.85;;;14.50;88.30;;;;;;4972497;28;20436;-58
2021/09/17 04:53:08;;;;;;;12.40;7.75;;;14.40;88.40;;;;;;4989041;28;20050;-58
2021/09/17 04:55:35;;;;;;;15.63;9.32;;;14.40;88.40;;;;;;4989893;28;20072;-59
2021/09/17 04:58:03;;;;;;;16.55;7.65;;;14.40;88.40;;;;;;4990761;28;20046;-59
2021/09/17 05:00:30;;;;;;;12.18;6.47;;;14.40;88.10;;;;;;4972882;28;20050;-61
2021/09/17 05:02:57;;;;;;;11.10;7.50;;;14.30;87.80;;;;;;4989806;28;20046;-59
2021/09/17 05:05:24;;;;;;;15.40;6.70;;;14.30;88.10;;;;;;4990121;28;20038;-59
2021/09/17 05:07:51;;;;;;;14.68;7.68;;;14.30;88.00;;;;;;4972225;28;20077;-59
2021/09/17 05:10:18;;;;;;;12.20;7.28;;;14.20;87.90;;;;;;4989483;28;20132;-59
2021/09/17 05:12:44;;;;;;;14.30;7.53;;;14.20;88.20;;;;;;4988249;28;20651;-59
2021/09/17 05:15:11;;;;;;;13.93;7.38;;;14.10;88.50;;;;;;4988659;28;20116;-60
2021/09/17 05:17:42;;;;;;;12.60;6.88;;;14.10;88.40;;;;;;4988188;28;20140;-59
2021/09/17 05:20:10;;;;;;;10.52;7.28;;;14.10;88.00;;;;;;4976738;28;20173;-59
2021/09/17 05:22:37;;;;;;;7.70;4.88;;;14.00;87.90;;;;;;4985175;28;20082;-59
2021/09/17 05:25:04;;;;;;;8.82;5.03;;;14.00;87.90;;;;;;4980344;28;20054;-59
2021/09/17 05:27:31;;;;;;;6.70;4.50;;;13.90;87.70;;;;;;4979940;28;20061;-59
2021/09/17 05:29:59;;;;;;;11.40;6.22;;;13.90;87.80;;;;;;4997656;28;20042;-59
2021/09/17 05:32:26;;;;;;;9.15;6.50;;;13.80;87.80;;;;;;4998114;28;20181;-60
2021/09/17 05:34:53;;;;;;;12.13;6.75;;;13.80;87.80;;;;;;4999827;28;20066;-59
2021/09/17 05:37:20;;;;;;;15.82;7.47;;;13.80;87.90;;;;;;4958734;28;20054;-60
2021/09/17 05:40:03;;;;;;;16.25;8.00;;;13.70;87.60;;;;;;5001296;28;20057;-60
2021/09/17 05:42:30;;;;;;;18.10;8.18;;;13.80;89.80;;;;;;4993378;28;20130;-60
2021/09/17 05:44:57;;;;;;;18.33;9.20;;;13.80;88.50;;;;;;4986252;28;20042;-58
2021/09/17 05:47:24;;;;;;;15.80;8.50;;;13.80;88.70;;;;;;4981872;28;20121;-59
2021/09/17 05:49:51;;;;;;;11.85;6.90;;;13.90;88.80;;;;;;4989292;28;20054;-56
2021/09/17 05:52:18;;;;;;;14.73;8.38;;;13.90;88.70;;;;;;4991381;28;20046;-59
2021/09/17 05:54:46;;;;;;;17.08;8.68;;;14.00;88.70;;;;;;4990737;28;20054;-59
2021/09/17 05:57:13;;;;;;;18.77;9.05;;;13.90;88.60;;;;;;4991836;28;20057;-61
2021/09/17 05:59:40;;;;;;;18.85;10.88;;;13.90;88.80;;;;;;4986802;28;20560;-59
2021/09/17 06:02:08;;;;;;;12.48;7.18;;;13.90;88.70;;;;;;4986054;28;20130;-60
2021/09/17 06:04:35;;;;;;;13.93;8.55;;;14.00;88.40;;;;;;4983907;28;20382;-60
2021/09/17 06:07:02;;;;;;;20.25;8.25;;;14.00;88.20;;;;;;4982227;28;20057;-60
2021/09/17 06:09:29;;;;;;;15.02;7.13;;;13.90;88.10;;;;;;4985949;28;20105;-59
2021/09/17 06:11:56;;;;;;;11.98;7.32;;;14.00;88.20;;;;;;4986956;28;20390;-60
2021/09/17 06:14:23;;;;;;;16.58;7.85;;;13.90;88.20;;;;;;4987168;28;20129;-60
2021/09/17 06:16:49;;;;;;;13.50;6.82;;;13.90;88.30;;;;;;4986096;28;20669;-60
2021/09/17 06:19:16;;;;;;;14.75;6.78;;;14.00;88.50;;;;;;4986526;28;20136;-59
2021/09/17 06:21:43;;;;;;;11.48;5.80;;;14.00;87.90;;;;;;4987400;28;20076;-61
2021/09/17 06:24:10;;;;;;;13.27;6.35;;;14.00;87.60;;;;;;4986160;28;20552;-60
2021/09/17 06:26:36;;;;;;;12.73;6.72;;;14.10;87.50;;;;;;4984613;28;20129;-58
2021/09/17 06:29:04;;;;;;;18.48;7.57;;;14.10;87.50;;;;;;4985375;28;20430;-57
2021/09/17 06:31:32;;;;;;;20.25;8.38;;;14.20;87.50;;;;;;4984784;28;20069;-58
2021/09/17 06:33:58;;;;;;;14.75;7.05;;;14.30;87.90;;;;;;4985828;28;20138;-59
2021/09/17 06:36:25;;;;;;;22.80;6.28;;;14.30;87.90;;;;;;4982113;28;20210;-58
2021/09/17 06:38:52;;;;;;;13.18;7.35;;;14.30;87.70;;;;;;4985461;28;20078;-59
2021/09/17 06:41:19;;;;;;;19.08;7.68;;;14.40;88.10;;;;;;4986986;28;20038;-59
2021/09/17 06:43:45;;;;;;;15.20;6.85;;;14.40;88.40;;;;;;4986774;28;20319;-59
2021/09/17 06:46:12;;;;;;;17.58;8.70;;;14.50;88.60;;;;;;4985312;28;20137;-57
2021/09/17 06:48:39;;;;;;;12.30;5.85;;;14.60;88.80;;;;;;4637889;28;9999882;-57
2021/09/17 06:51:06;;;;;;;11.50;6.97;;;14.70;88.80;;;;;;4981882;28;20128;-57
2021/09/17 06:53:33;;;;;;;11.90;6.10;;;14.80;88.80;;;;;;4980819;28;20505;-57
2021/09/17 06:56:00;;;;;;;8.40;5.65;;;14.80;88.80;;;;;;4977389;28;20104;-58
2021/09/17 06:58:31;;;;;;;13.65;7.10;;;14.90;88.70;;;;;;4978309;28;20046;-57
2021/09/17 07:00:59;;;;;;;9.00;5.60;;;15.00;88.80;;;;;;4979829;28;20047;-58
2021/09/17 07:03:29;;;;;;;14.13;6.85;;;15.00;88.80;;;;;;4983653;28;20050;-58
2021/09/17 07:05:56;;;;;;;11.90;6.53;;;15.10;88.80;;;;;;4982689;28;20102;-57
2021/09/17 07:08:23;;;;;;;11.02;6.18;;;15.20;88.90;;;;;;4983840;28;20089;-58
2021/09/17 07:10:50;;;;;;;18.42;8.20;;;15.20;88.80;;;;;;4980907;28;20696;-58
2021/09/17 07:13:17;;;;;;;9.95;6.18;;;15.30;88.90;;;;;;4983772;28;20097;-59
2021/09/17 07:15:44;;;;;;;12.15;6.63;;;15.30;88.80;;;;;;4978829;28;20141;-57
2021/09/17 07:18:11;;;;;;;11.50;7.15;;;15.30;88.90;;;;;;4982979;28;20074;-58
2021/09/17 07:20:38;;;;;;;11.60;6.63;;;15.40;88.80;;;;;;4983395;28;20073;-57
2021/09/17 07:23:05;;;;;;;10.75;6.68;;;15.50;88.80;;;;;;4981403;28;20062;-57
2021/09/17 07:25:33;;;;;;;18.15;7.25;;;15.50;88.60;;;;;;4983505;28;20046;-58
2021/09/17 07:28:00;;;;;;;13.48;6.70;;;15.60;88.60;;;;;;4965930;28;20066;-58
2021/09/17 07:30:27;;;;;;;9.88;5.93;;;15.60;88.30;;;;;;4983127;28;20072;-59
2021/09/17 07:32:54;;;;;;;23.02;8.38;;;15.70;88.40;;;;;;4983494;28;20093;-59
2021/09/17 07:35:21;;;;;;;9.75;6.45;;;15.70;88.40;;;;;;4983411;28;20081;-57
2021/09/17 07:37:47;;;;;;;17.00;6.85;;;15.80;88.50;;;;;;4983114;28;20054;-56
2021/09/17 07:40:14;;;;;;;6.90;5.38;;;15.90;88.30;;;;;;4983780;28;20090;-57
2021/09/17 07:42:42;;;;;;;9.73;4.57;;;15.90;88.10;;;;;;4984394;28;20134;-58
2021/09/17 07:45:09;;;;;;;9.02;4.47;;;16.10;88.00;;;;;;4986781;28;20062;-57
2021/09/17 07:47:36;;;;;;;8.75;4.22;;;16.10;87.80;;;;;;4985812;28;20050;-57
2021/09/17 07:50:04;;;;;;;9.00;5.00;;;16.20;87.70;;;;;;4953871;28;20145;-57
2021/09/17 07:52:31;;;;;;;9.80;3.80;;;16.30;87.70;;;;;;4986364;28;20476;-57
2021/09/17 07:54:58;;;;;;;12.82;4.32;;;16.30;87.30;;;;;;4987098;28;20050;-58
2021/09/17 07:57:25;;;;;;;15.13;3.78;;;16.40;87.40;;;;;;4986735;28;20117;-58
2021/09/17 07:59:52;;;;;;;7.82;3.50;;;16.60;87.00;;;;;;4987602;28;20179;-58
2021/09/17 08:02:18;;;;;;;7.82;2.97;;;16.60;86.40;;;;;;4987003;28;20046;-58
2021/09/17 08:04:45;;;;;;;14.95;2.90;;;16.70;86.10;;;;;;4985942;28;20050;-57
2021/09/17 08:07:12;;;;;;;8.93;2.05;;;16.60;85.80;;;;;;4987121;28;20629;-57
2021/09/17 08:09:39;;;;;;;7.75;2.28;;;16.60;85.40;;;;;;4986813;28;20066;-57
2021/09/17 08:12:06;;;;;;;9.95;2.30;;;16.60;85.40;;;;;;4987210;28;20153;-57
2021/09/17 08:14:33;;;;;;;6.88;2.40;;;16.60;85.20;;;;;;4986564;28;20654;-59
2021/09/17 08:17:00;;;;;;;6.82;2.13;;;16.60;85.30;;;;;;4986921;28;20046;-57
2021/09/17 08:19:26;;;;;;;8.63;3.30;;;16.60;85.20;;;;;;4986722;28;20450;-59
2021/09/17 08:21:53;;;;;;;6.72;1.52;;;16.70;85.00;;;;;;4986582;28;20136;-58
2021/09/17 08:24:20;;;;;;;4.55;2.10;;;16.60;84.90;;;;;;4986563;28;20788;-58
2021/09/17 08:26:50;;;;;;;5.97;1.92;;;16.70;84.60;;;;;;4986976;28;20049;-57
2021/09/17 08:29:17;;;;;;;3.92;1.92;;;16.70;84.50;;;;;;4969112;28;20698;-57
2021/09/17 08:31:44;;;;;;;7.57;1.88;;;16.70;84.50;;;;;;4987108;28;20083;-58
2021/09/17 08:34:10;;;;;;;8.95;2.15;;;16.80;84.60;;;;;;4986266;28;20149;-58
2021/09/17 08:36:37;;;;;;;4.57;1.48;;;16.90;84.30;;;;;;4986719;28;20054;-57
2021/09/17 08:39:05;;;;;;;6.53;1.30;;;16.90;84.10;;;;;;4968902;28;20125;-60
2021/09/17 08:41:32;;;;;;;7.22;1.40;;;17.00;84.00;;;;;;4968774;28;20141;-58
2021/09/17 08:43:59;;;;;;;4.88;1.55;;;17.10;84.10;;;;;;4985751;28;20058;-59
2021/09/17 08:46:25;;;;;;;5.80;1.20;;;17.20;83.80;;;;;;4953121;28;20054;-59
2021/09/17 08:48:52;;;;;;;8.57;1.45;;;17.30;83.40;;;;;;4985770;28;20058;-59
2021/09/17 08:51:19;;;;;;;3.42;0.98;;;17.40;83.00;;;;;;4967756;28;20084;-59
2021/09/17 08:53:46;;;;;;;2.60;0.70;;;17.50;82.80;;;;;;4985528;28;20568;-59
2021/09/17 08:56:15;;;;;;;7.40;1.02;;;17.50;82.40;;;;;;4985569;28;20149;-59
2021/09/17 08:58:46;;;;;;;6.45;1.30;;;17.60;82.50;;;;;;4986211;28;20157;-60
2021/09/17 09:01:26;;;;;;;4.93;1.25;;;17.80;79.50;;;;;;4986033;28;20509;-60
2021/09/17 09:03:56;;;;;;;6.60;1.25;;;17.80;79.30;;;;;;4986895;28;20509;-60
2021/09/17 09:06:23;;;;;;;6.63;1.40;;;17.90;80.30;;;;;;4988350;28;20385;-58
2021/09/17 09:08:49;;;;;;;12.30;1.98;;;18.00;79.70;;;;;;4988846;28;20058;-59
2021/09/17 09:11:18;;;;;;;4.15;0.80;;;18.20;79.60;;;;;;4988515;28;20038;-60
2021/09/17 09:13:57;;;;;;;3.00;1.00;;;18.50;78.40;;;;;;4988601;28;20046;-59
2021/09/17 09:16:24;;;;;;;2.53;0.90;;;18.70;73.60;;;;;;4988322;28;20414;-60
2021/09/17 09:18:51;;;;;;;3.42;0.90;;;18.80;75.90;;;;;;4971354;28;20448;-60
2021/09/17 09:21:24;;;;;;;5.43;1.02;;;19.00;74.60;;;;;;4970408;28;20090;-60
2021/09/17 09:24:15;;;;;;;3.10;0.90;;;19.00;72.60;;;;;;4987943;28;20153;-59
2021/09/17 09:26:44;;;;;;;3.90;1.05;;;19.00;71.70;;;;;;4979741;28;20051;-59
2021/09/17 09:29:24;;;;;;;4.22;1.30;;;19.10;73.90;;;;;;4985995;28;20137;-60
2021/09/17 09:31:51;;;;;;;1.55;0.68;;;19.30;72.10;;;;;;4987855;28;20078;-58
2021/09/17 09:34:18;;;;;;;4.43;1.50;;;19.50;74.20;;;;;;4987794;28;20050;-57
2021/09/17 09:36:45;;;;;;;3.33;0.70;;;19.80;72.90;;;;;;4987558;28;20205;-58
2021/09/17 09:39:12;;;;;;;3.65;0.93;;;19.80;72.90;;;;;;4987756;28;20077;-58
2021/09/17 09:41:39;;;;;;;4.28;0.73;;;19.80;71.50;;;;;;4987304;28;20073;-58
2021/09/17 09:44:19;;;;;;;4.05;0.80;;;19.70;70.20;;;;;;4987218;28;20137;-59
2021/09/17 09:46:46;;;;;;;5.28;1.42;;;19.70;71.40;;;;;;4958790;28;20097;-58
2021/09/17 09:49:24;;;;;;;2.05;0.80;;;19.70;71.80;;;;;;4986551;28;20060;-58
2021/09/17 09:51:52;;;;;;;2.75;0.90;;;19.70;69.60;;;;;;4985507;28;20056;-58
2021/09/17 09:54:19;;;;;;;3.10;0.90;;;19.70;71.90;;;;;;4985318;28;20074;-58
2021/09/17 09:56:46;;;;;;;1.17;0.70;;;19.60;71.50;;;;;;4985299;28;20089;-59
2021/09/17 09:59:14;;;;;;;2.85;0.65;;;19.70;71.10;;;;;;4968189;28;20074;-58
2021/09/17 10:01:41;;;;;;;7.50;0.70;;;19.70;71.20;;;;;;4985746;28;20098;-60
2021/09/17 10:04:09;;;;;;;3.05;0.80;;;19.70;70.10;;;;;;4985966;28;20100;-59
2021/09/17 10:06:37;;;;;;;1.17;0.73;;;19.80;69.50;;;;;;4967276;28;20138;-59
2021/09/17 10:09:09;;;;;;;4.68;0.75;;;19.90;70.80;;;;;;4986501;28;20043;-59
2021/09/17 10:11:36;;;;;;;3.00;0.70;;;19.90;69.10;;;;;;4986929;28;20142;-58
2021/09/17 10:14:05;;;;;;;3.80;1.20;;;20.00;70.10;;;;;;4986965;28;20054;-58
2021/09/17 10:16:32;;;;;;;6.38;1.05;;;20.00;69.00;;;;;;4969914;28;20100;-58
2021/09/17 10:18:58;;;;;;;8.07;1.00;;;19.90;69.50;;;;;;4969436;28;20046;-59
2021/09/17 10:21:52;;;;;;;2.10;0.82;;;20.00;69.60;;;;;;4969149;28;20137;-58
2021/09/17 10:24:40;;;;;;;7.85;1.25;;;20.10;67.80;;;;;;4983251;28;20043;-59
2021/09/17 10:27:10;;;;;;;5.53;0.85;;;20.20;66.20;;;;;;4986733;28;20112;-59
2021/09/17 10:29:44;;;;;;;1.98;0.73;;;20.30;68.50;;;;;;4986272;28;20517;-59
2021/09/17 10:32:26;;;;;;;8.48;1.33;;;20.40;68.60;;;;;;4987006;28;20510;-59
2021/09/17 10:35:04;;;;;;;20.23;1.85;;;20.50;68.00;;;;;;4986910;28;20104;-58
2021/09/17 10:38:06;;;;;;;4.80;1.17;;;20.60;68.10;;;;;;4986461;28;20137;-59
2021/09/17 10:40:58;;;;;;;2.97;1.13;;;20.70;66.80;;;;;;4986801;28;20050;-59
2021/09/17 10:43:38;;;;;;;4.50;0.88;;;20.90;68.40;;;;;;4986414;28;20092;-59
2021/09/17 10:46:21;;;;;;;4.60;1.27;;;21.00;67.80;;;;;;4986820;28;20065;-58
2021/09/17 10:48:53;;;;;;;4.05;0.98;;;21.00;68.40;;;;;;4986343;28;20166;-58
2021/09/17 10:51:33;;;;;;;4.30;1.10;;;21.00;69.00;;;;;;4986013;28;20560;-58
2021/09/17 10:54:01;;;;;;;3.88;1.40;;;21.00;66.70;;;;;;4986497;28;21200;-58
2021/09/17 10:56:29;;;;;;;1.60;0.70;;;21.00;68.90;;;;;;4986582;28;20051;-59
2021/09/17 10:59:41;;;;;;;3.80;1.10;;;21.00;68.70;;;;;;4968999;28;20797;-58
2021/09/17 11:02:08;;;;;;;7.13;0.90;;;21.10;64.00;;;;;;4891432;29;20072;-59
2021/09/17 11:04:37;;;;;;;10.30;1.42;;;21.10;67.60;;;;;;4970002;28;20116;-59
2021/09/17 11:07:17;;;;;;;5.35;1.48;;;21.20;66.70;;;;;;4968552;28;20142;-59
2021/09/17 11:09:50;;;;;;;2.78;0.95;;;21.10;64.20;;;;;;4977633;28;20074;-59
2021/09/17 11:12:24;;;;;;;2.38;0.93;;;21.20;65.90;;;;;;4986326;28;20053;-59
2021/09/17 11:15:09;;;;;;;4.13;0.75;;;21.10;65.60;;;;;;4986006;28;20042;-60
2021/09/17 11:17:40;;;;;;;4.82;1.10;;;21.20;64.10;;;;;;4988563;28;20055;-59
2021/09/17 11:20:09;;;;;;;4.55;1.05;;;21.30;65.90;;;;;;4989779;28;20070;-60
2021/09/17 11:22:54;;;;;;;4.65;1.10;;;21.30;66.50;;;;;;4968984;28;20062;-60
2021/09/17 11:25:25;;;;;;;3.97;1.33;;;21.20;62.40;;;;;;4981645;28;20038;-59
2021/09/17 11:27:52;;;;;;;3.30;1.08;;;21.10;64.80;;;;;;4972745;28;20065;-59
2021/09/17 11:30:26;;;;;;;1.92;1.17;;;21.10;66.70;;;;;;4989354;28;20085;-59
2021/09/17 11:32:53;;;;;;;2.88;0.90;;;21.20;66.00;;;;;;4989523;28;20081;-57
2021/09/17 11:35:20;;;;;;;2.95;1.20;;;21.30;66.20;;;;;;4971822;28;20054;-59
2021/09/17 11:37:55;;;;;;;4.18;1.30;;;21.30;65.80;;;;;;4989630;28;20137;-58
2021/09/17 11:40:22;;;;;;;2.50;0.93;;;21.30;64.70;;;;;;4979298;28;20502;-59
2021/09/17 11:42:49;;;;;;;3.08;1.10;;;21.30;65.50;;;;;;4990405;28;20054;-58
2021/09/17 11:45:17;;;;;;;4.80;1.50;;;21.40;65.40;;;;;;4989665;28;20058;-58
2021/09/17 11:47:46;;;;;;;3.38;1.42;;;21.50;65.20;;;;;;4988255;28;20133;-58
2021/09/17 11:50:16;;;;;;;2.85;1.42;;;21.50;64.80;;;;;;4972636;28;20144;-58
2021/09/17 11:52:50;;;;;;;6.93;1.35;;;21.60;64.80;;;;;;4989369;28;20046;-59
2021/09/17 11:55:19;;;;;;;2.42;1.10;;;21.60;63.00;;;;;;4989530;28;20161;-59
2021/09/17 11:57:47;;;;;;;2.90;1.33;;;21.70;65.10;;;;;;4989683;28;20042;-59
2021/09/17 12:00:21;;;;;;;3.78;1.48;;;21.70;65.40;;;;;;4989521;28;20161;-59
2021/09/17 12:02:49;;;;;;;3.25;1.20;;;21.70;65.70;;;;;;4989059;28;20093;-58
2021/09/17 12:05:23;;;;;;;4.30;1.20;;;21.80;65.30;;;;;;4956408;28;20088;-58
2021/09/17 12:07:51;;;;;;;1.85;1.10;;;21.80;64.50;;;;;;4973418;28;20046;-59
2021/09/17 12:10:19;;;;;;;6.55;1.67;;;21.90;65.30;;;;;;4989357;28;20220;-59
2021/09/17 12:12:47;;;;;;;5.45;1.77;;;22.00;64.70;;;;;;4971205;28;20074;-59
2021/09/17 12:15:24;;;;;;;3.83;1.50;;;21.90;63.90;;;;;;4988997;28;20050;-60
2021/09/17 12:17:54;;;;;;;2.25;1.15;;;21.90;62.70;;;;;;4988514;28;20435;-60
2021/09/17 12:20:21;;;;;;;3.55;1.48;;;21.90;63.10;;;;;;4988968;28;20131;-59
2021/09/17 12:22:57;;;;;;;1.85;1.02;;;21.90;63.90;;;;;;4988073;28;20116;-60
2021/09/17 12:25:29;;;;;;;2.45;1.40;;;21.90;62.20;;;;;;4971434;28;20046;-60
2021/09/17 12:28:03;;;;;;;3.80;1.20;;;22.10;63.20;;;;;;4988315;28;20050;-60
2021/09/17 12:30:31;;;;;;;4.72;1.23;;;22.00;61.40;;;;;;4952489;28;20082;-59
2021/09/17 12:33:19;;;;;;;4.22;1.33;;;22.00;64.00;;;;;;4983580;28;20205;-60
2021/09/17 12:35:47;;;;;;;4.30;0.93;;;22.00;62.20;;;;;;4969438;28;20155;-58
2021/09/17 12:38:15;;;;;;;2.70;1.50;;;22.00;64.20;;;;;;4985071;28;20054;-59
2021/09/17 12:40:50;;;;;;;3.60;1.08;;;22.00;64.10;;;;;;4989398;28;20078;-59
2021/09/17 12:43:37;;;;;;;2.05;1.05;;;22.00;62.50;;;;;;4988580;28;20133;-59
2021/09/17 12:46:12;;;;;;;2.78;0.95;;;22.00;63.70;;;;;;4989258;28;20078;-58
2021/09/17 12:48:41;;;;;;;2.63;1.15;;;22.10;62.40;;;;;;4988565;28;20521;-58
2021/09/17 12:51:16;;;;;;;4.05;1.27;;;22.00;62.70;;;;;;4989102;28;20085;-59
2021/09/17 12:53:43;;;;;;;0.95;0.80;;;22.00;62.20;;;;;;4968229;28;20154;-60
2021/09/17 12:56:11;;;;;;;3.78;1.05;;;22.00;62.80;;;;;;4970273;28;20086;-59
2021/09/17 12:58:39;;;;;;;2.03;1.00;;;22.00;62.30;;;;;;4971553;28;20129;-58
2021/09/17 13:01:07;;;;;;;5.15;1.80;;;22.00;61.70;;;;;;4988968;28;20054;-59
2021/09/17 13:03:34;;;;;;;1.98;1.15;;;22.00;61.70;;;;;;4988308;28;20516;-59
2021/09/17 13:06:05;;;;;;;1.98;1.27;;;22.00;61.40;;;;;;4988827;28;20105;-59
2021/09/17 13:08:33;;;;;;;2.00;1.27;;;22.10;60.50;;;;;;4988384;28;20046;-59
2021/09/17 13:11:03;;;;;;;2.08;1.15;;;22.20;61.40;;;;;;4988772;28;20050;-59
2021/09/17 13:13:30;;;;;;;5.15;1.40;;;22.20;61.40;;;;;;4971311;28;20331;-59
2021/09/17 13:15:57;;;;;;;1.13;0.82;;;22.40;61.60;;;;;;4989076;28;20050;-59
2021/09/17 13:18:25;;;;;;;2.05;1.42;;;22.30;61.50;;;;;;4988577;28;20124;-59
2021/09/17 13:20:52;;;;;;;5.57;1.40;;;22.30;61.70;;;;;;4970953;28;20062;-58
2021/09/17 13:23:19;;;;;;;6.47;1.67;;;22.30;61.70;;;;;;4638614;28;9999766;-59
2021/09/17 13:25:48;;;;;;;5.22;1.60;;;22.30;62.00;;;;;;4967715;28;20502;-59
2021/09/17 13:28:15;;;;;;;2.92;1.60;;;22.30;62.20;;;;;;4985462;28;20054;-60
2021/09/17 13:30:42;;;;;;;3.15;1.80;;;22.30;61.80;;;;;;4985507;28;20439;-58
2021/09/17 13:33:09;;;;;;;5.20;2.20;;;22.40;62.10;;;;;;4985253;28;20046;-59
2021/09/17 13:35:38;;;;;;;7.00;2.35;;;22.60;62.20;;;;;;4967547;28;20133;-59